Terminal Aerodrome Forecast
Issued by NWS Omaha/Valley, NE

Home | Current Version | Previous Version | Text Only | Print | Product List | Glossary On
Versions: 1 2 3 4 5 6 7 8 9 10 11 12 13 14 15 16 17 18 19 20 21
000
FTUS43 KOAX 221120
TAFLNK
TAF
KLNK 221120Z 2212/2312 16012KT P6SM SCT070 BKN200
     FM221600 17015G24KT P6SM SCT050 BKN150
     FM222100 17012KT P6SM BKN035
      TEMPO 2221/2301 4SM TSRA BKN025CB
     FM230100 18008KT 6SM -SHRA OVC035 PROB30 2301/2305 4SM TSRA
      OVC020CB
     FM230500 24005KT 5SM BR SCT008 BKN020=

USA.gov is the U.S. government's official web portal to all federal, state and local government web resources and services.